Time;durP1;ratioP1;P1;durP2;ratioP2;P2;SDS_P1;SDS_P2;PMS_P1;PMS_P2;Temp;Humidity;BMP_temperature;BMP_pressure;BME280_temperature;BME280_humidity;BME280_pressure;Samples;Min_cycle;Max_cycle;Signal;HPM_P1;HPM_P2
2022/03/18 00:02:09;;;;;;;6.75;1.48;;;20.00;51.30;;;;;;4444669;32;20200;-69
2022/03/18 00:04:35;;;;;;;5.57;1.48;;;20.00;51.40;;;;;;4444898;32;20086;-69
2022/03/18 00:07:01;;;;;;;4.55;1.70;;;20.00;51.40;;;;;;4430949;32;20082;-69
2022/03/18 00:09:27;;;;;;;6.07;1.30;;;20.00;51.40;;;;;;4444289;32;20082;-70
2022/03/18 00:11:53;;;;;;;3.97;1.40;;;20.00;51.40;;;;;;4444832;32;20073;-69
2022/03/18 00:14:21;;;;;;;10.60;1.52;;;20.00;51.40;;;;;;4444797;32;20086;-69
2022/03/18 00:16:47;;;;;;;3.45;1.40;;;19.90;51.40;;;;;;4430485;32;20129;-70
2022/03/18 00:19:13;;;;;;;3.30;1.30;;;19.90;51.40;;;;;;4444704;32;20224;-69
2022/03/18 00:21:39;;;;;;;3.80;1.30;;;19.90;51.40;;;;;;4444361;32;20168;-69
2022/03/18 00:24:06;;;;;;;3.53;1.30;;;19.90;51.40;;;;;;4445951;32;20066;-69
2022/03/18 00:26:33;;;;;;;3.40;1.40;;;19.90;51.40;;;;;;4433580;32;20097;-69
2022/03/18 00:28:59;;;;;;;4.45;1.08;;;19.90;51.40;;;;;;4433469;32;20122;-69
2022/03/18 00:31:25;;;;;;;3.83;1.50;;;19.90;51.40;;;;;;4447351;32;20077;-70
2022/03/18 00:33:51;;;;;;;3.97;1.50;;;19.80;51.60;;;;;;4447475;32;20070;-70
2022/03/18 00:36:17;;;;;;;2.65;1.05;;;19.80;51.40;;;;;;4447324;32;20403;-69
2022/03/18 00:38:43;;;;;;;4.38;1.48;;;19.80;51.40;;;;;;4447141;32;20156;-70
2022/03/18 00:41:09;;;;;;;4.32;1.50;;;19.80;51.40;;;;;;4446877;32;20086;-69
2022/03/18 00:43:35;;;;;;;5.40;1.50;;;19.80;51.40;;;;;;4433493;32;20219;-70
2022/03/18 00:46:01;;;;;;;3.45;1.20;;;19.80;51.40;;;;;;4447290;32;20076;-69
2022/03/18 00:53:55;;;;;;;5.38;1.55;;;19.70;51.40;;;;;;4447065;32;20417;-69
2022/03/18 00:56:21;;;;;;;4.78;1.50;;;19.70;51.30;;;;;;4446980;32;20080;-70
2022/03/18 00:58:47;;;;;;;3.15;1.25;;;19.70;51.40;;;;;;4446827;32;20093;-69
2022/03/18 01:01:12;;;;;;;4.35;1.33;;;19.70;51.40;;;;;;4445395;32;20163;-69
2022/03/18 01:03:40;;;;;;;4.35;1.27;;;19.70;51.40;;;;;;4446613;32;20117;-69
2022/03/18 01:06:05;;;;;;;3.67;1.30;;;19.70;51.50;;;;;;4446665;32;20399;-69
2022/03/18 01:08:31;;;;;;;4.70;1.63;;;19.60;51.40;;;;;;4446525;32;20058;-69
2022/03/18 01:10:57;;;;;;;3.38;1.45;;;19.60;51.40;;;;;;4446985;32;20080;-69
2022/03/18 01:13:23;;;;;;;5.07;1.30;;;19.60;51.40;;;;;;4446439;32;20173;-69
2022/03/18 01:15:49;;;;;;;4.30;1.40;;;19.60;51.40;;;;;;4446666;32;20120;-70
2022/03/18 01:18:15;;;;;;;3.58;1.20;;;19.60;51.40;;;;;;4447007;32;20207;-69
2022/03/18 01:20:41;;;;;;;4.65;1.20;;;19.60;51.40;;;;;;4446652;32;20062;-69
2022/03/18 01:23:07;;;;;;;3.45;1.17;;;19.60;51.40;;;;;;4446638;32;20066;-69
2022/03/18 01:25:34;;;;;;;4.07;1.25;;;19.60;51.40;;;;;;4446567;32;20082;-69
2022/03/18 01:28:06;;;;;;;4.85;1.20;;;19.60;51.50;;;;;;4446288;32;20086;-69
2022/03/18 01:30:32;;;;;;;2.78;1.33;;;19.50;51.40;;;;;;4446547;32;20109;-69
2022/03/18 01:33:01;;;;;;;4.18;1.40;;;19.50;51.40;;;;;;4446718;32;20082;-69
2022/03/18 01:35:28;;;;;;;4.15;1.20;;;19.50;51.40;;;;;;4445608;32;20082;-69
2022/03/18 01:37:54;;;;;;;2.78;1.05;;;19.50;51.40;;;;;;4446166;32;20208;-69
2022/03/18 01:40:19;;;;;;;3.72;1.38;;;19.50;51.40;;;;;;4446329;32;20124;-69
2022/03/18 01:42:45;;;;;;;4.00;1.27;;;19.50;51.40;;;;;;4446297;32;20062;-69
2022/03/18 01:45:11;;;;;;;3.13;1.17;;;19.50;51.30;;;;;;4432150;32;20066;-69
2022/03/18 01:47:42;;;;;;;3.42;1.13;;;19.50;52.30;;;;;;4446262;32;20425;-69
2022/03/18 01:50:17;;;;;;;3.45;1.10;;;19.40;51.30;;;;;;4446266;32;20259;-69
2022/03/18 01:52:45;;;;;;;2.17;0.98;;;19.40;51.30;;;;;;4446574;32;20110;-69
2022/03/18 01:55:12;;;;;;;4.65;1.35;;;19.40;51.30;;;;;;4432152;32;20086;-69
2022/03/18 01:57:38;;;;;;;2.90;1.10;;;19.40;51.30;;;;;;4446035;32;20516;-69
2022/03/18 02:00:05;;;;;;;3.35;1.23;;;19.40;51.30;;;;;;4445946;32;20211;-69
2022/03/18 02:02:32;;;;;;;2.72;1.27;;;19.40;51.30;;;;;;4446336;32;20066;-69
2022/03/18 02:04:58;;;;;;;3.85;1.38;;;19.40;51.30;;;;;;4445980;32;20086;-70
2022/03/18 02:07:24;;;;;;;2.50;1.05;;;19.40;51.30;;;;;;4445781;32;20082;-69
2022/03/18 02:09:50;;;;;;;3.63;1.38;;;19.40;51.30;;;;;;4445542;32;20090;-69
2022/03/18 02:12:16;;;;;;;2.85;1.02;;;19.40;51.30;;;;;;4432269;32;20126;-69
2022/03/18 02:14:44;;;;;;;3.20;1.05;;;19.30;51.20;;;;;;4445762;32;20129;-69
2022/03/18 02:17:11;;;;;;;4.32;1.30;;;19.30;51.20;;;;;;4446056;32;20101;-69
2022/03/18 02:19:39;;;;;;;3.25;1.20;;;19.30;51.30;;;;;;4446156;32;20081;-69
2022/03/18 02:22:14;;;;;;;5.50;1.20;;;19.30;51.30;;;;;;4445781;32;20511;-69
2022/03/18 02:24:45;;;;;;;3.17;1.00;;;19.30;51.30;;;;;;4445513;32;20562;-69
2022/03/18 02:27:12;;;;;;;3.80;1.10;;;19.30;51.30;;;;;;4445797;32;20082;-69
2022/03/18 02:29:39;;;;;;;1.45;1.08;;;19.30;51.30;;;;;;4445760;32;20069;-69
2022/03/18 02:32:07;;;;;;;1.75;0.90;;;19.30;51.30;;;;;;4445383;32;20070;-69
2022/03/18 02:34:37;;;;;;;4.63;1.30;;;19.30;51.30;;;;;;4445567;32;20085;-69
2022/03/18 02:37:03;;;;;;;4.07;1.30;;;19.20;51.30;;;;;;4445354;32;20511;-69
2022/03/18 02:39:29;;;;;;;3.05;1.15;;;19.20;51.30;;;;;;4445516;32;20117;-69
2022/03/18 02:41:55;;;;;;;2.28;0.98;;;19.20;51.30;;;;;;4445590;32;20395;-69
2022/03/18 02:44:21;;;;;;;3.13;1.10;;;19.20;51.30;;;;;;4431636;32;20519;-69
2022/03/18 02:46:47;;;;;;;2.97;1.10;;;19.20;51.40;;;;;;4445266;32;20141;-70
2022/03/18 02:49:13;;;;;;;2.10;0.95;;;19.20;51.30;;;;;;4445222;32;20369;-69
2022/03/18 02:51:39;;;;;;;1.33;0.82;;;19.20;51.40;;;;;;4445461;32;20232;-69
2022/03/18 02:54:05;;;;;;;3.47;1.30;;;19.20;51.40;;;;;;4445375;32;20070;-70
2022/03/18 02:56:32;;;;;;;3.42;1.27;;;19.20;51.40;;;;;;4445229;32;20085;-69
2022/03/18 02:59:00;;;;;;;2.72;1.17;;;19.20;51.40;;;;;;4445359;32;20223;-69
2022/03/18 03:01:27;;;;;;;2.65;0.90;;;19.20;51.40;;;;;;4445192;32;20090;-69
2022/03/18 03:03:56;;;;;;;2.22;1.10;;;19.10;51.40;;;;;;4445314;32;20086;-69
2022/03/18 03:09:07;;;;;;;2.67;0.90;;;19.10;51.40;;;;;;4445062;32;20319;-69
2022/03/18 03:11:33;;;;;;;2.58;1.00;;;19.10;51.50;;;;;;4445225;32;20088;-69
2022/03/18 03:14:00;;;;;;;2.40;1.00;;;19.10;51.50;;;;;;4445127;32;20172;-69
2022/03/18 03:16:26;;;;;;;2.05;0.82;;;19.10;51.50;;;;;;4445265;32;20094;-70
2022/03/18 03:18:52;;;;;;;2.83;1.10;;;19.10;51.50;;;;;;4445359;32;20089;-69
2022/03/18 03:21:18;;;;;;;2.38;0.90;;;19.10;51.50;;;;;;4445119;32;20089;-69
2022/03/18 03:23:44;;;;;;;1.88;1.20;;;19.10;51.50;;;;;;4445265;32;20074;-69
2022/03/18 03:26:11;;;;;;;2.08;1.00;;;19.10;51.50;;;;;;4445297;32;20173;-69
2022/03/18 03:28:37;;;;;;;2.33;0.95;;;19.10;51.50;;;;;;4444971;32;20070;-69
2022/03/18 03:31:04;;;;;;;2.67;1.20;;;19.10;51.50;;;;;;4431131;32;20435;-69
2022/03/18 03:33:32;;;;;;;2.83;1.15;;;19.00;51.50;;;;;;4444896;32;20223;-69
2022/03/18 03:35:58;;;;;;;2.45;1.00;;;19.00;51.50;;;;;;4444610;32;20171;-69
2022/03/18 03:38:25;;;;;;;4.13;1.10;;;19.00;51.50;;;;;;4444910;32;20090;-69
2022/03/18 03:40:51;;;;;;;2.65;1.15;;;19.00;51.50;;;;;;4445103;32;20101;-69
2022/03/18 03:43:17;;;;;;;2.35;0.93;;;19.00;51.50;;;;;;4444865;32;20070;-69
2022/03/18 03:45:43;;;;;;;2.75;1.05;;;19.00;51.60;;;;;;4444860;32;20152;-69
2022/03/18 03:48:13;;;;;;;2.92;1.10;;;19.00;51.60;;;;;;4444799;32;20086;-69
2022/03/18 03:50:40;;;;;;;3.40;1.20;;;19.00;51.60;;;;;;4444801;32;20104;-69
2022/03/18 03:53:07;;;;;;;3.15;1.10;;;19.00;51.60;;;;;;4444493;32;20088;-69
2022/03/18 03:55:38;;;;;;;3.03;1.00;;;19.00;51.60;;;;;;4430389;32;20074;-69
2022/03/18 03:58:08;;;;;;;3.10;1.30;;;19.00;51.60;;;;;;4445344;32;20491;-69
2022/03/18 04:00:36;;;;;;;2.80;1.10;;;18.90;51.60;;;;;;4447686;32;20435;-69
2022/03/18 04:03:03;;;;;;;2.03;0.93;;;18.90;51.60;;;;;;4447786;32;20549;-69
2022/03/18 04:05:34;;;;;;;2.70;0.98;;;18.90;51.60;;;;;;4448059;32;20066;-69
2022/03/18 04:08:01;;;;;;;2.67;1.10;;;18.90;51.60;;;;;;4447778;32;20136;-69
2022/03/18 04:10:27;;;;;;;2.95;1.02;;;18.90;51.60;;;;;;4447337;32;20148;-69
2022/03/18 04:12:54;;;;;;;2.55;0.88;;;18.90;51.70;;;;;;4433780;32;20577;-69
2022/03/18 04:15:21;;;;;;;2.38;0.77;;;18.90;51.60;;;;;;4447703;32;20114;-69
2022/03/18 04:17:48;;;;;;;2.35;0.85;;;18.90;51.60;;;;;;4447789;32;20495;-69
2022/03/18 04:20:16;;;;;;;2.47;0.80;;;18.90;51.70;;;;;;4447274;32;20078;-69
2022/03/18 04:22:43;;;;;;;3.70;0.82;;;18.80;51.60;;;;;;4447516;32;20074;-69
2022/03/18 04:25:09;;;;;;;2.53;1.00;;;18.80;52.60;;;;;;4447719;32;20081;-69
2022/03/18 04:27:36;;;;;;;1.70;0.85;;;18.80;51.60;;;;;;4447509;32;20137;-69
2022/03/18 04:30:07;;;;;;;1.95;1.17;;;18.80;51.60;;;;;;4447283;32;20078;-69
2022/03/18 04:32:34;;;;;;;2.25;0.95;;;18.80;51.60;;;;;;4447213;32;20129;-69
2022/03/18 04:35:00;;;;;;;2.85;1.00;;;18.80;51.60;;;;;;4432940;32;20195;-69
2022/03/18 04:37:26;;;;;;;2.95;0.88;;;18.80;51.70;;;;;;4447253;32;20251;-69
2022/03/18 04:39:52;;;;;;;1.17;0.68;;;18.80;51.70;;;;;;4446839;32;20092;-69
2022/03/18 04:42:18;;;;;;;1.48;0.85;;;18.80;51.70;;;;;;4447358;32;20208;-69
2022/03/18 04:44:44;;;;;;;2.35;0.88;;;18.80;51.70;;;;;;4447243;32;20070;-69
2022/03/18 04:47:11;;;;;;;2.33;1.10;;;18.80;51.80;;;;;;4447002;32;20110;-69
2022/03/18 04:49:38;;;;;;;1.80;0.95;;;18.80;52.70;;;;;;4447150;32;20131;-69
2022/03/18 04:52:04;;;;;;;2.63;0.60;;;18.80;51.80;;;;;;4447232;32;20208;-69
2022/03/18 04:54:30;;;;;;;2.38;0.77;;;18.80;51.80;;;;;;4446769;32;20207;-69
2022/03/18 04:59:41;;;;;;;3.10;1.20;;;18.70;51.80;;;;;;4446768;32;20413;-69
2022/03/18 05:02:10;;;;;;;1.73;0.90;;;18.70;51.80;;;;;;4446851;32;20089;-69
2022/03/18 05:04:37;;;;;;;2.15;1.05;;;18.70;51.80;;;;;;4446882;32;20519;-69
2022/03/18 05:07:07;;;;;;;1.77;1.13;;;18.70;51.80;;;;;;4447107;32;20093;-69
2022/03/18 05:09:33;;;;;;;1.67;0.90;;;18.70;51.80;;;;;;4446580;32;20085;-69
2022/03/18 05:11:59;;;;;;;3.10;1.20;;;18.70;51.90;;;;;;4433085;32;20062;-69
2022/03/18 05:14:25;;;;;;;2.95;1.08;;;18.70;51.80;;;;;;4446766;32;20515;-69
2022/03/18 05:16:52;;;;;;;1.70;0.90;;;18.70;51.80;;;;;;4446395;32;20093;-69
2022/03/18 05:19:18;;;;;;;1.60;0.80;;;18.70;51.80;;;;;;4432938;32;20086;-69
2022/03/18 05:21:44;;;;;;;2.17;0.73;;;18.60;51.80;;;;;;4432794;32;20208;-69
2022/03/18 05:24:09;;;;;;;3.08;0.98;;;18.60;51.80;;;;;;4446904;32;20164;-69
2022/03/18 05:26:37;;;;;;;1.77;0.70;;;18.60;51.80;;;;;;4446615;32;20066;-69
2022/03/18 05:29:03;;;;;;;1.55;0.80;;;18.60;51.90;;;;;;4446807;32;20077;-69
2022/03/18 05:31:31;;;;;;;3.53;0.90;;;18.60;51.90;;;;;;4446455;32;20078;-69
2022/03/18 05:33:58;;;;;;;2.55;0.80;;;18.60;51.90;;;;;;4446698;32;20119;-69
2022/03/18 05:36:24;;;;;;;1.20;0.70;;;18.60;51.90;;;;;;4446159;32;20078;-69
2022/03/18 05:38:49;;;;;;;2.38;0.80;;;18.60;51.90;;;;;;4446189;32;20082;-69
2022/03/18 05:41:16;;;;;;;2.22;1.20;;;18.60;51.90;;;;;;4446097;32;20416;-69
2022/03/18 05:43:42;;;;;;;1.88;0.90;;;18.60;51.90;;;;;;4446595;32;20071;-69
2022/03/18 05:46:08;;;;;;;1.70;0.80;;;18.60;51.90;;;;;;4446455;32;20078;-69
2022/03/18 05:48:34;;;;;;;1.38;0.73;;;18.60;51.90;;;;;;4446263;32;20176;-69
2022/03/18 05:51:03;;;;;;;1.95;0.80;;;18.50;51.80;;;;;;4446139;32;20550;-69
2022/03/18 05:53:30;;;;;;;1.88;0.80;;;18.60;51.90;;;;;;4445849;32;20074;-69
2022/03/18 05:58:42;;;;;;;1.45;0.80;;;18.50;51.90;;;;;;4446525;32;20566;-69
2022/03/18 06:01:10;;;;;;;1.30;0.63;;;18.50;51.90;;;;;;4431843;32;20531;-69
2022/03/18 06:03:36;;;;;;;2.50;0.90;;;18.50;51.90;;;;;;4446182;32;20082;-69
2022/03/18 06:06:04;;;;;;;1.95;0.70;;;18.50;51.90;;;;;;4445993;32;20503;-69
2022/03/18 06:13:59;;;;;;;1.67;0.77;;;18.50;52.00;;;;;;4429496;32;20122;-69
2022/03/18 06:16:24;;;;;;;3.13;1.10;;;18.50;52.00;;;;;;4430369;32;20280;-69
2022/03/18 06:18:50;;;;;;;2.22;0.75;;;18.50;52.00;;;;;;4429316;32;20110;-69
2022/03/18 06:21:16;;;;;;;1.70;0.75;;;18.40;51.90;;;;;;4429061;32;20067;-69
2022/03/18 06:23:43;;;;;;;1.65;0.70;;;18.40;51.90;;;;;;4430368;32;20078;-69
2022/03/18 06:26:09;;;;;;;1.90;0.90;;;18.40;51.90;;;;;;4430069;32;20070;-69
2022/03/18 06:28:35;;;;;;;2.75;0.88;;;18.40;51.90;;;;;;4430255;32;20231;-69
2022/03/18 06:31:02;;;;;;;1.92;0.65;;;18.40;51.90;;;;;;4430133;32;20476;-69
2022/03/18 06:33:27;;;;;;;1.88;0.90;;;18.40;52.00;;;;;;4430230;32;20074;-69
2022/03/18 06:35:54;;;;;;;1.38;0.70;;;18.40;52.00;;;;;;4429017;32;20089;-69
2022/03/18 06:38:20;;;;;;;2.83;1.00;;;18.40;52.00;;;;;;4430079;32;20129;-69
2022/03/18 06:40:46;;;;;;;1.50;1.00;;;18.40;52.00;;;;;;4429806;32;20085;-69
2022/03/18 06:43:12;;;;;;;1.30;0.68;;;18.40;52.00;;;;;;4428993;32;20082;-69
2022/03/18 06:45:38;;;;;;;2.53;1.10;;;18.40;52.00;;;;;;4429851;32;20128;-69
2022/03/18 06:48:04;;;;;;;2.05;0.80;;;18.40;52.10;;;;;;4430255;32;20058;-69
2022/03/18 06:50:29;;;;;;;1.55;0.80;;;18.40;52.10;;;;;;4429969;32;20193;-69
2022/03/18 06:52:55;;;;;;;1.30;0.68;;;18.40;52.10;;;;;;4430018;32;20093;-70
2022/03/18 06:55:21;;;;;;;1.20;0.60;;;18.40;52.10;;;;;;4428818;32;20105;-69
2022/03/18 06:57:47;;;;;;;1.58;0.80;;;18.40;52.10;;;;;;4416333;32;20070;-69
2022/03/18 07:00:13;;;;;;;1.80;1.00;;;18.40;52.10;;;;;;4429518;32;20506;-69
2022/03/18 07:02:39;;;;;;;1.73;0.70;;;18.40;52.10;;;;;;4429607;32;20085;-69
2022/03/18 07:05:05;;;;;;;1.42;0.80;;;18.40;52.10;;;;;;4429546;32;20074;-69
2022/03/18 07:07:31;;;;;;;1.45;0.73;;;18.40;52.10;;;;;;4429785;32;20415;-69
2022/03/18 07:09:57;;;;;;;1.55;0.68;;;18.40;52.10;;;;;;4433572;32;20074;-69
2022/03/18 07:12:23;;;;;;;1.30;0.75;;;18.40;52.10;;;;;;4445507;32;20490;-69
2022/03/18 07:14:49;;;;;;;1.33;0.70;;;18.40;52.10;;;;;;4418486;32;20089;-69
2022/03/18 07:19:59;;;;;;;1.58;0.65;;;18.30;52.00;;;;;;4445710;32;20159;-70
2022/03/18 07:22:25;;;;;;;2.55;0.80;;;18.30;52.00;;;;;;4444825;32;20087;-69
2022/03/18 07:24:51;;;;;;;1.30;0.63;;;18.30;52.90;;;;;;4445316;32;20117;-69
2022/03/18 07:27:17;;;;;;;1.20;0.43;;;18.30;52.10;;;;;;4444830;32;20073;-70
2022/03/18 07:29:43;;;;;;;1.25;0.60;;;18.30;52.00;;;;;;4444947;32;20126;-69
2022/03/18 07:32:09;;;;;;;1.52;0.80;;;18.30;52.10;;;;;;4445005;32;20054;-69
2022/03/18 07:34:34;;;;;;;1.70;0.80;;;18.30;52.00;;;;;;4447518;32;20376;-69
2022/03/18 07:37:01;;;;;;;2.15;0.75;;;18.30;52.10;;;;;;4434393;32;20097;-69
2022/03/18 07:39:28;;;;;;;1.95;0.77;;;18.30;52.00;;;;;;4448309;32;20400;-69
2022/03/18 07:41:54;;;;;;;1.73;0.70;;;18.30;52.00;;;;;;4448451;32;20121;-75
2022/03/18 07:44:20;;;;;;;1.95;0.70;;;18.30;52.00;;;;;;4448087;32;20074;-69
2022/03/18 07:46:45;;;;;;;2.00;0.88;;;18.40;52.10;;;;;;4433783;32;20080;-69
2022/03/18 07:49:12;;;;;;;1.90;0.75;;;18.40;52.10;;;;;;4434231;32;20070;-69
2022/03/18 07:51:38;;;;;;;2.72;1.20;;;18.40;52.00;;;;;;4447974;32;20536;-68
2022/03/18 07:54:04;;;;;;;2.22;1.13;;;18.40;51.90;;;;;;4447885;32;20063;-69
2022/03/18 07:56:30;;;;;;;3.28;1.20;;;18.40;51.80;;;;;;4447745;32;20196;-69
2022/03/18 07:58:55;;;;;;;6.15;1.42;;;18.50;51.70;;;;;;4447756;32;20070;-70
2022/03/18 08:01:21;;;;;;;5.32;1.42;;;18.50;51.50;;;;;;4447904;32;20381;-69
2022/03/18 08:03:47;;;;;;;3.75;1.50;;;18.60;51.50;;;;;;4447878;32;20070;-69
2022/03/18 08:06:13;;;;;;;7.13;1.45;;;18.70;51.40;;;;;;4434126;32;20070;-69
2022/03/18 08:08:39;;;;;;;5.18;1.33;;;18.80;51.30;;;;;;4447748;32;20117;-69
2022/03/18 08:11:05;;;;;;;3.00;1.40;;;18.90;51.20;;;;;;4447709;32;20387;-69
2022/03/18 08:13:31;;;;;;;2.95;1.05;;;19.00;50.90;;;;;;4447564;32;20569;-69
2022/03/18 08:15:57;;;;;;;4.32;1.50;;;19.20;50.80;;;;;;4433667;32;20085;-69
2022/03/18 08:18:23;;;;;;;7.72;1.80;;;19.20;50.50;;;;;;4447776;32;20093;-69
2022/03/18 08:23:36;;;;;;;3.40;1.10;;;19.40;50.30;;;;;;4447527;32;20070;-69
2022/03/18 08:26:02;;;;;;;4.70;1.40;;;19.50;50.10;;;;;;4447312;32;20063;-69
2022/03/18 08:28:28;;;;;;;3.85;1.00;;;19.50;50.00;;;;;;4447598;32;20380;-69
2022/03/18 08:30:54;;;;;;;6.93;1.50;;;19.60;49.90;;;;;;4447297;32;20076;-68
2022/03/18 08:33:20;;;;;;;4.10;1.15;;;19.70;49.80;;;;;;4447354;32;20220;-68
2022/03/18 08:35:48;;;;;;;5.72;1.27;;;19.80;49.80;;;;;;4447496;32;20074;-69
2022/03/18 08:38:14;;;;;;;6.40;1.25;;;19.90;49.80;;;;;;4447743;32;20070;-69
2022/03/18 08:40:40;;;;;;;7.40;1.25;;;19.90;49.80;;;;;;4433288;32;20106;-70
2022/03/18 08:43:11;;;;;;;9.57;1.50;;;20.00;49.90;;;;;;4447251;32;20488;-70
2022/03/18 08:45:37;;;;;;;7.38;1.98;;;20.00;49.80;;;;;;4447094;32;20066;-70
2022/03/18 08:48:04;;;;;;;12.52;3.20;;;20.10;49.50;;;;;;4446998;32;20613;-70
2022/03/18 08:50:30;;;;;;;16.13;3.67;;;20.20;49.00;;;;;;4447396;32;20122;-70
2022/03/18 08:52:57;;;;;;;16.80;3.30;;;20.20;48.60;;;;;;4447402;32;20133;-71
2022/03/18 08:55:23;;;;;;;14.48;3.20;;;20.20;48.20;;;;;;4447260;32;20171;-70
2022/03/18 08:57:50;;;;;;;18.45;4.30;;;20.20;47.90;;;;;;4446906;32;20070;-71
2022/03/18 09:00:17;;;;;;;18.23;3.65;;;20.30;47.70;;;;;;4433159;32;20160;-70
2022/03/18 09:02:45;;;;;;;14.35;3.35;;;20.20;47.40;;;;;;4447165;32;20090;-74
2022/03/18 09:05:12;;;;;;;9.95;3.38;;;20.30;47.50;;;;;;4446813;32;20109;-72
2022/03/18 09:07:38;;;;;;;11.77;2.63;;;20.40;47.50;;;;;;4447347;32;20144;-70
2022/03/18 09:10:09;;;;;;;11.15;2.05;;;20.40;47.50;;;;;;4446515;32;20078;-69
2022/03/18 09:12:42;;;;;;;12.68;2.70;;;20.50;47.50;;;;;;4432522;32;20093;-70
2022/03/18 09:15:08;;;;;;;12.65;2.80;;;20.50;47.50;;;;;;4446797;32;20090;-69
2022/03/18 09:17:34;;;;;;;11.98;2.55;;;20.60;47.50;;;;;;4446480;32;20171;-70
2022/03/18 09:20:00;;;;;;;12.95;2.28;;;20.60;47.50;;;;;;4446874;32;20534;-69
2022/03/18 09:22:26;;;;;;;9.65;2.03;;;20.60;47.50;;;;;;4446355;32;20078;-72
2022/03/18 09:24:52;;;;;;;14.15;2.05;;;20.70;47.40;;;;;;4447002;32;20086;-69
2022/03/18 09:27:17;;;;;;;8.88;2.08;;;20.80;47.50;;;;;;4446640;32;20078;-69
2022/03/18 09:29:43;;;;;;;9.50;2.00;;;20.80;47.50;;;;;;4446609;32;20080;-69
2022/03/18 09:32:09;;;;;;;11.25;2.00;;;20.80;47.50;;;;;;4446309;32;20228;-69
2022/03/18 09:34:39;;;;;;;11.27;2.22;;;20.90;47.50;;;;;;4446526;32;20090;-69
2022/03/18 09:37:05;;;;;;;12.80;2.28;;;20.90;47.50;;;;;;4446040;32;20081;-72
2022/03/18 09:39:32;;;;;;;9.65;1.80;;;20.90;47.50;;;;;;4446349;32;20086;-70
2022/03/18 09:41:58;;;;;;;11.93;2.78;;;21.00;47.60;;;;;;4446370;32;20419;-70
2022/03/18 09:44:24;;;;;;;11.32;2.10;;;21.00;47.30;;;;;;4446293;32;20518;-70
2022/03/18 09:46:51;;;;;;;17.42;2.67;;;20.90;47.10;;;;;;4446196;32;20176;-70
2022/03/18 09:49:19;;;;;;;15.20;2.60;;;20.90;47.00;;;;;;4446254;32;20074;-70
2022/03/18 09:51:46;;;;;;;11.30;2.60;;;20.80;46.70;;;;;;4446194;32;20066;-70
2022/03/18 09:54:13;;;;;;;13.05;2.67;;;20.80;46.70;;;;;;4445774;32;20397;-70
2022/03/18 09:56:40;;;;;;;13.95;3.25;;;20.70;46.80;;;;;;4445430;32;20227;-71
2022/03/18 09:59:06;;;;;;;12.13;2.10;;;20.70;47.00;;;;;;4446194;32;20232;-71
2022/03/18 10:01:32;;;;;;;12.45;2.53;;;20.60;47.20;;;;;;4446024;32;20231;-71
2022/03/18 10:04:07;;;;;;;13.48;2.15;;;20.60;47.40;;;;;;4445991;32;20070;-74
2022/03/18 10:06:34;;;;;;;13.93;2.83;;;20.60;47.60;;;;;;4445757;32;20074;-75
2022/03/18 10:09:01;;;;;;;15.35;2.88;;;20.50;47.80;;;;;;4446038;32;20514;-70
2022/03/18 10:11:30;;;;;;;10.40;2.13;;;20.50;48.00;;;;;;4445925;32;20097;-70
2022/03/18 10:14:05;;;;;;;12.35;2.20;;;20.40;48.20;;;;;;4446032;32;20500;-71
2022/03/18 10:16:41;;;;;;;7.47;2.03;;;20.40;48.50;;;;;;4432048;32;20129;-70
2022/03/18 10:19:13;;;;;;;8.93;2.22;;;20.30;48.60;;;;;;4446197;32;20078;-71
2022/03/18 10:21:55;;;;;;;15.23;2.25;;;20.30;48.80;;;;;;4445928;32;20096;-70
2022/03/18 10:24:27;;;;;;;9.27;2.20;;;20.30;49.00;;;;;;4446283;32;20105;-70
2022/03/18 10:27:22;;;;;;;9.38;2.20;;;20.20;49.00;;;;;;4446164;32;20407;-69
2022/03/18 10:29:53;;;;;;;11.25;2.53;;;20.10;48.90;;;;;;4431737;32;20204;-70
2022/03/18 10:32:21;;;;;;;12.07;2.47;;;20.00;49.00;;;;;;4445416;32;20077;-69
2022/03/18 10:37:50;;;;;;;14.38;3.10;;;19.90;49.00;;;;;;4445910;32;20092;-70
2022/03/18 10:40:31;;;;;;;14.38;2.80;;;19.90;49.00;;;;;;4445465;32;20090;-71
2022/03/18 10:43:02;;;;;;;11.70;2.90;;;19.90;49.10;;;;;;4445572;32;20074;-70
2022/03/18 10:45:30;;;;;;;12.57;2.95;;;19.80;49.00;;;;;;4445797;32;20089;-70
2022/03/18 10:48:11;;;;;;;13.63;2.80;;;19.80;49.00;;;;;;4445824;32;20100;-70
2022/03/18 10:50:37;;;;;;;15.13;2.53;;;19.70;48.70;;;;;;4445508;32;20078;-73
2022/03/18 10:53:06;;;;;;;16.15;3.13;;;19.70;48.90;;;;;;4445340;32;20082;-69
2022/03/18 10:55:38;;;;;;;15.60;3.28;;;19.60;48.80;;;;;;4445122;32;20118;-70
2022/03/18 10:58:16;;;;;;;18.67;3.60;;;19.60;48.70;;;;;;4445544;32;20054;-71
2022/03/18 11:00:43;;;;;;;23.70;4.05;;;19.60;48.60;;;;;;4445466;32;20066;-73
2022/03/18 11:03:09;;;;;;;17.17;3.78;;;19.50;48.50;;;;;;4445477;32;20143;-71
2022/03/18 11:05:51;;;;;;;23.02;4.38;;;19.50;48.50;;;;;;4445332;32;20074;-72
2022/03/18 11:08:22;;;;;;;22.65;4.47;;;19.40;48.30;;;;;;4445443;32;20086;-72
2022/03/18 11:11:15;;;;;;;23.52;3.72;;;19.40;48.50;;;;;;4445552;32;20070;-72
2022/03/18 11:13:51;;;;;;;18.67;3.90;;;19.40;48.50;;;;;;4445797;32;20263;-72
2022/03/18 11:16:19;;;;;;;17.35;3.92;;;19.40;48.50;;;;;;4445704;32;20081;-71
2022/03/18 11:18:47;;;;;;;23.05;4.00;;;19.30;48.60;;;;;;4445631;32;20082;-71
2022/03/18 11:21:13;;;;;;;16.02;3.15;;;19.30;48.60;;;;;;4445260;32;20180;-71
2022/03/18 11:23:41;;;;;;;15.32;3.35;;;19.30;48.60;;;;;;4445299;32;20097;-72
2022/03/18 11:26:10;;;;;;;22.70;4.05;;;19.20;48.50;;;;;;4445211;32;20074;-72
2022/03/18 11:28:35;;;;;;;15.60;3.13;;;19.20;48.50;;;;;;4445468;32;20105;-71
2022/03/18 11:31:05;;;;;;;18.73;3.58;;;19.20;48.60;;;;;;4444710;32;20467;-71
2022/03/18 11:33:33;;;;;;;16.85;3.17;;;19.20;48.70;;;;;;4445092;32;20323;-72
2022/03/18 11:36:13;;;;;;;18.73;3.47;;;19.20;48.60;;;;;;4444966;32;20088;-73
2022/03/18 11:39:02;;;;;;;20.17;3.47;;;19.20;48.60;;;;;;4445198;32;20168;-72
2022/03/18 11:41:53;;;;;;;16.02;3.33;;;19.10;48.50;;;;;;4445076;32;20082;-70
2022/03/18 11:44:43;;;;;;;17.63;3.47;;;19.10;48.60;;;;;;4435589;32;20097;-71
2022/03/18 11:47:28;;;;;;;18.73;3.83;;;19.10;48.60;;;;;;4445167;32;20134;-71
2022/03/18 11:49:54;;;;;;;21.05;3.53;;;19.10;48.70;;;;;;4445179;32;20117;-73
2022/03/18 11:52:20;;;;;;;15.60;3.65;;;19.10;48.70;;;;;;4445001;32;20523;-72
2022/03/18 11:54:52;;;;;;;16.73;3.00;;;19.10;48.70;;;;;;4445235;32;20097;-72
2022/03/18 11:57:29;;;;;;;15.98;3.22;;;19.10;48.60;;;;;;4444958;32;20077;-71
2022/03/18 11:59:57;;;;;;;16.80;3.80;;;19.00;48.60;;;;;;4444639;32;20420;-71
2022/03/18 12:02:37;;;;;;;22.00;3.53;;;19.00;48.70;;;;;;4444934;32;20192;-72
2022/03/18 12:05:05;;;;;;;14.75;3.13;;;19.00;48.60;;;;;;4431900;32;20506;-72
2022/03/18 12:07:46;;;;;;;15.75;3.25;;;19.00;48.80;;;;;;4444677;32;20133;-72
2022/03/18 12:10:14;;;;;;;15.63;3.25;;;19.00;48.80;;;;;;4444767;32;20102;-72
2022/03/18 12:12:45;;;;;;;13.65;3.00;;;19.00;48.90;;;;;;4445194;32;20216;-72
2022/03/18 12:15:15;;;;;;;16.38;2.97;;;19.00;48.80;;;;;;4444790;32;20243;-69
2022/03/18 12:17:42;;;;;;;16.48;3.15;;;19.00;48.80;;;;;;4444902;32;20114;-70
2022/03/18 12:20:20;;;;;;;15.65;2.92;;;19.00;48.80;;;;;;4446588;32;20078;-69
2022/03/18 12:22:48;;;;;;;18.33;3.22;;;19.00;48.80;;;;;;4447688;32;20082;-71
2022/03/18 12:25:14;;;;;;;15.90;2.95;;;19.00;48.80;;;;;;4447887;32;20089;-70
2022/03/18 12:27:41;;;;;;;12.60;2.70;;;19.00;48.80;;;;;;4447831;32;20078;-70
2022/03/18 12:30:09;;;;;;;18.65;3.50;;;19.00;48.80;;;;;;4447490;32;20235;-71
2022/03/18 12:32:54;;;;;;;14.43;2.85;;;19.00;48.80;;;;;;4447589;32;20487;-70
2022/03/18 12:35:29;;;;;;;15.93;3.45;;;18.90;48.60;;;;;;4447493;32;20077;-70
2022/03/18 12:38:03;;;;;;;19.20;2.72;;;18.90;48.60;;;;;;4447468;32;20100;-70
2022/03/18 12:40:29;;;;;;;13.57;2.70;;;18.90;48.60;;;;;;4447395;32;20108;-70
2022/03/18 12:42:58;;;;;;;15.50;3.15;;;18.90;48.60;;;;;;4447406;32;20090;-70
2022/03/18 12:45:33;;;;;;;18.17;3.25;;;19.00;48.60;;;;;;4447532;32;20188;-70
2022/03/18 12:48:02;;;;;;;13.85;2.88;;;19.00;48.60;;;;;;4447281;32;20086;-69
2022/03/18 12:50:38;;;;;;;17.92;3.38;;;19.00;48.60;;;;;;4446925;32;20086;-69
2022/03/18 12:53:13;;;;;;;14.90;3.05;;;18.90;48.60;;;;;;4447551;32;20113;-68
2022/03/18 12:55:41;;;;;;;13.88;2.67;;;19.00;48.50;;;;;;4447094;32;20090;-69
2022/03/18 12:58:07;;;;;;;19.95;3.38;;;19.00;48.50;;;;;;4432919;32;20155;-69
2022/03/18 13:00:41;;;;;;;18.85;3.20;;;19.00;48.40;;;;;;4446768;32;20103;-68
2022/03/18 13:03:11;;;;;;;;;;;19.00;48.30;;;;;;4447672;32;20547;-69
2022/03/18 13:05:38;;;;;;;16.48;3.53;;;19.00;48.20;;;;;;4447211;32;20040;-69
2022/03/18 13:08:07;;;;;;;16.23;3.50;;;19.00;48.30;;;;;;4446796;32;20077;-70
2022/03/18 13:10:34;;;;;;;13.60;2.95;;;19.00;48.20;;;;;;4447227;32;20146;-70
2022/03/18 13:13:09;;;;;;;12.27;2.67;;;19.10;48.20;;;;;;4447442;32;20082;-70
2022/03/18 13:15:35;;;;;;;13.30;3.13;;;19.10;48.10;;;;;;4447123;32;20066;-70